createdAt,value
2017-09-04T00:01:02.874Z,87.20
2017-09-04T00:03:31.304Z,86.90
2017-09-04T00:05:59.961Z,87.10
2017-09-04T00:08:28.379Z,87.00
2017-09-04T00:10:57.625Z,87.20
2017-09-04T00:13:26.024Z,87.50
2017-09-04T00:15:54.448Z,87.90
2017-09-04T00:18:22.886Z,88.30
2017-09-04T00:20:51.557Z,88.30
2017-09-04T00:23:20.741Z,88.80
2017-09-04T00:25:49.450Z,88.90
2017-09-04T00:28:18.132Z,89.20
2017-09-04T00:30:46.581Z,89.60
2017-09-04T00:33:14.664Z,89.40
2017-09-04T00:35:43.366Z,90.10
2017-09-04T00:38:11.460Z,89.60
2017-09-04T00:40:39.889Z,89.80
2017-09-04T00:43:08.177Z,90.00
2017-09-04T00:45:36.606Z,89.90
2017-09-04T00:48:05.026Z,89.60
2017-09-04T00:50:33.736Z,89.80
2017-09-04T00:53:02.142Z,90.00
2017-09-04T00:55:30.211Z,89.90
2017-09-04T00:57:58.861Z,89.50
2017-09-04T01:00:27.295Z,89.80
2017-09-04T01:02:55.720Z,90.10
2017-09-04T01:05:24.001Z,90.20
2017-09-04T01:07:52.420Z,90.30
2017-09-04T01:10:21.618Z,90.30
2017-09-04T01:12:50.249Z,90.40
2017-09-04T01:15:18.565Z,90.40
2017-09-04T01:17:46.985Z,90.50
2017-09-04T01:20:15.557Z,90.70
2017-09-04T01:22:43.973Z,90.90
2017-09-04T01:25:12.414Z,90.80
2017-09-04T01:27:41.032Z,90.80
2017-09-04T01:30:09.478Z,90.60
2017-09-04T01:32:37.749Z,90.80
2017-09-04T01:35:06.369Z,91.00
2017-09-04T01:37:34.793Z,90.90
2017-09-04T01:40:03.213Z,91.10
2017-09-04T01:42:31.680Z,91.30
2017-09-04T01:45:00.120Z,91.50
2017-09-04T01:47:28.535Z,91.70
2017-09-04T01:49:57.149Z,92.00
2017-09-04T01:52:25.385Z,91.60
2017-09-04T01:54:53.810Z,91.70
2017-09-04T01:57:22.484Z,91.50
2017-09-04T01:59:50.908Z,91.40
2017-09-04T02:02:19.348Z,91.30
2017-09-04T02:04:48.019Z,91.30
2017-09-04T02:07:16.441Z,91.00
2017-09-04T02:09:45.113Z,91.10
2017-09-04T02:12:13.705Z,91.20
2017-09-04T02:14:42.138Z,91.40
2017-09-04T02:17:10.563Z,91.50
2017-09-04T02:19:39.158Z,91.80
2017-09-04T02:22:07.574Z,91.40
2017-09-04T02:24:35.994Z,91.50
2017-09-04T02:27:04.621Z,91.40
2017-09-04T02:29:33.112Z,91.30
2017-09-04T02:32:01.532Z,91.20
2017-09-04T02:34:30.095Z,91.30
2017-09-04T02:36:58.538Z,91.10
2017-09-04T02:39:26.943Z,91.20
2017-09-04T02:41:55.428Z,91.10
2017-09-04T02:44:24.096Z,91.10
2017-09-04T02:46:52.523Z,91.10
2017-09-04T02:49:21.186Z,91.20
2017-09-04T02:51:49.636Z,91.00
2017-09-04T02:54:18.064Z,91.00
2017-09-04T02:56:46.684Z,91.00
2017-09-04T02:59:15.114Z,91.20
2017-09-04T03:01:43.537Z,91.50
2017-09-04T03:04:12.177Z,91.60
2017-09-04T03:06:40.589Z,91.70
2017-09-04T03:09:09.013Z,92.10
2017-09-04T03:11:37.452Z,91.80
2017-09-04T03:14:05.872Z,91.70
2017-09-04T03:16:34.269Z,91.60
2017-09-04T03:19:02.701Z,91.60
2017-09-04T03:21:31.109Z,91.50
2017-09-04T03:24:00.285Z,91.40
2017-09-04T03:26:28.955Z,91.40
2017-09-04T03:28:57.048Z,91.40
2017-09-04T03:31:25.467Z,91.40
2017-09-04T03:33:53.718Z,91.30
2017-09-04T03:36:21.437Z,91.30
2017-09-04T03:38:49.525Z,91.30
2017-09-04T03:41:17.625Z,91.70
2017-09-04T03:43:45.500Z,92.00
2017-09-04T03:46:13.768Z,92.10
2017-09-04T03:48:41.365Z,92.40
2017-09-04T03:51:09.249Z,92.50
2017-09-04T03:53:37.138Z,92.50
2017-09-04T03:56:05.044Z,92.70
2017-09-04T03:58:32.588Z,92.90
2017-09-04T04:01:00.660Z,92.60
2017-09-04T04:03:28.753Z,92.70
2017-09-04T04:05:56.811Z,92.70
2017-09-04T04:08:24.877Z,92.60
2017-09-04T04:10:53.330Z,92.60
2017-09-04T04:13:22.337Z,92.70
2017-09-04T04:15:50.587Z,92.70
2017-09-04T04:18:19.065Z,92.60
2017-09-04T04:20:47.487Z,92.40
2017-09-04T04:23:15.909Z,92.30
2017-09-04T04:25:44.545Z,92.00
2017-09-04T04:28:12.988Z,91.80
2017-09-04T04:30:40.733Z,91.80
2017-09-04T04:33:09.387Z,91.90
2017-09-04T04:35:37.789Z,91.90
2017-09-04T04:38:06.209Z,92.10
2017-09-04T04:40:34.788Z,92.10
2017-09-04T04:43:03.976Z,92.10
2017-09-04T04:45:32.398Z,92.10
2017-09-04T04:48:00.908Z,92.20
2017-09-04T04:50:29.315Z,92.30
2017-09-04T04:52:57.745Z,92.10
2017-09-04T04:55:26.233Z,92.60
2017-09-04T04:57:54.629Z,92.20
2017-09-04T05:00:23.049Z,92.10
2017-09-04T05:02:51.484Z,92.00
2017-09-04T05:05:19.904Z,92.10
2017-09-04T05:07:48.324Z,92.20
2017-09-04T05:10:16.859Z,92.30
2017-09-04T05:12:45.309Z,92.60
2017-09-04T05:15:13.549Z,92.60
2017-09-04T05:17:42.023Z,92.60
2017-09-04T05:20:10.438Z,92.60
2017-09-04T05:22:38.860Z,92.60
2017-09-04T05:25:07.305Z,92.60
2017-09-04T05:27:35.737Z,92.50
2017-09-04T05:30:04.153Z,92.50
2017-09-04T05:32:32.772Z,92.60
2017-09-04T05:35:02.013Z,92.30
2017-09-04T05:37:30.444Z,92.30
2017-09-04T05:39:59.346Z,92.40
2017-09-04T05:42:27.776Z,92.50
2017-09-04T05:44:56.197Z,92.40
2017-09-04T05:47:24.685Z,92.20
2017-09-04T05:49:53.096Z,91.90
2017-09-04T05:52:21.513Z,91.80
2017-09-04T05:54:50.132Z,91.80
2017-09-04T05:57:18.600Z,92.10
2017-09-04T05:59:47.034Z,91.90
2017-09-04T06:02:15.500Z,91.90
2017-09-04T06:04:43.925Z,91.80
2017-09-04T06:07:12.360Z,91.80
2017-09-04T06:09:41.005Z,91.80
2017-09-04T06:12:09.448Z,91.80
2017-09-04T06:14:37.906Z,92.00
2017-09-04T06:17:06.364Z,91.90
2017-09-04T06:19:34.779Z,92.00
2017-09-04T06:22:03.199Z,92.20
2017-09-04T06:24:31.889Z,92.30
2017-09-04T06:27:00.309Z,92.20
2017-09-04T06:29:28.744Z,92.40
2017-09-04T06:31:57.230Z,92.60
2017-09-04T06:34:25.665Z,92.50
2017-09-04T06:36:54.081Z,92.20
2017-09-04T06:39:22.757Z,92.00
2017-09-04T06:41:51.189Z,91.50
2017-09-04T06:44:19.605Z,91.30
2017-09-04T06:46:48.211Z,91.30
2017-09-04T06:49:16.632Z,91.30
2017-09-04T06:51:45.086Z,91.30
2017-09-04T06:54:13.743Z,91.40
2017-09-04T06:56:42.165Z,91.90
2017-09-04T06:59:10.593Z,91.90
2017-09-04T07:01:39.925Z,91.60
2017-09-04T07:04:08.360Z,91.60
2017-09-04T07:06:36.790Z,91.90
2017-09-04T07:09:04.736Z,91.70
2017-09-04T07:11:33.165Z,91.50
2017-09-04T07:14:01.405Z,91.50
2017-09-04T07:16:29.990Z,91.30
2017-09-04T07:18:58.424Z,91.40
2017-09-04T07:21:26.865Z,91.00
2017-09-04T07:23:55.320Z,90.90
2017-09-04T07:26:23.746Z,90.50
2017-09-04T07:28:52.173Z,90.20
2017-09-04T07:31:20.793Z,90.90
2017-09-04T07:33:49.216Z,90.00
2017-09-04T07:36:17.653Z,90.10
2017-09-04T07:38:46.309Z,90.00
2017-09-04T07:41:14.993Z,90.10
2017-09-04T07:43:43.451Z,90.00
2017-09-04T07:46:12.137Z,89.80
2017-09-04T07:48:40.639Z,89.20
2017-09-04T07:51:09.057Z,88.60
2017-09-04T07:53:37.601Z,88.00
2017-09-04T07:56:06.037Z,86.20
2017-09-04T07:58:34.456Z,85.00
2017-09-04T08:01:02.954Z,83.50
2017-09-04T08:03:31.434Z,82.30
2017-09-04T08:05:59.858Z,81.00
2017-09-04T08:08:28.561Z,79.80
2017-09-04T08:10:56.993Z,78.40
2017-09-04T08:13:25.427Z,76.70
2017-09-04T08:15:54.166Z,74.50
2017-09-04T08:18:22.589Z,71.70
2017-09-04T08:20:51.017Z,70.10
2017-09-04T08:23:19.505Z,66.90
2017-09-04T08:25:47.937Z,66.80
2017-09-04T08:28:16.408Z,65.20
2017-09-04T08:30:45.080Z,66.20
2017-09-04T08:33:13.492Z,65.00
2017-09-04T08:35:42.190Z,65.10
2017-09-04T08:38:10.838Z,64.60
2017-09-04T08:40:39.260Z,64.40
2017-09-04T08:43:07.698Z,64.00
2017-09-04T08:45:36.327Z,63.70
2017-09-04T08:48:04.732Z,61.80
2017-09-04T08:50:32.801Z,59.30
2017-09-04T08:53:01.252Z,58.90
2017-09-04T08:55:29.669Z,58.30
2017-09-04T08:57:58.117Z,56.50
2017-09-04T09:00:26.468Z,56.00
2017-09-04T09:02:54.895Z,55.50
2017-09-04T09:05:23.318Z,54.30
2017-09-04T09:07:51.796Z,53.70
2017-09-04T09:10:20.219Z,53.20
2017-09-04T09:12:48.654Z,52.20
2017-09-04T09:15:17.167Z,51.60
2017-09-04T09:17:45.577Z,51.70
2017-09-04T09:20:13.997Z,51.00
2017-09-04T09:22:42.400Z,50.90
2017-09-04T09:25:10.633Z,51.00
2017-09-04T09:27:38.874Z,50.60
2017-09-04T09:30:07.236Z,49.60
2017-09-04T09:32:35.453Z,48.80
2017-09-04T09:35:03.871Z,50.70
2017-09-04T09:37:32.336Z,50.60
2017-09-04T09:40:00.573Z,48.90
2017-09-04T09:42:28.999Z,49.90
2017-09-04T09:44:57.644Z,51.30
2017-09-04T09:47:26.077Z,49.00
2017-09-04T09:49:54.297Z,50.00
2017-09-04T09:52:22.981Z,49.40
2017-09-04T09:54:51.200Z,49.50
2017-09-04T09:57:20.526Z,48.20
2017-09-04T09:59:49.933Z,48.10
2017-09-04T10:02:19.574Z,49.00
2017-09-04T10:04:49.216Z,50.50
2017-09-04T10:07:19.680Z,51.00
2017-09-04T10:09:49.822Z,50.70
2017-09-04T10:12:20.224Z,52.50
2017-09-04T10:14:50.018Z,52.10
2017-09-04T10:17:20.857Z,52.60
2017-09-04T10:19:50.402Z,52.20
2017-09-04T10:22:19.895Z,53.40
2017-09-04T10:24:49.936Z,54.10
2017-09-04T10:27:20.811Z,54.70
2017-09-04T10:29:52.798Z,55.10
2017-09-04T10:32:23.211Z,53.90
2017-09-04T10:34:54.457Z,55.50
2017-09-04T10:37:24.975Z,54.70
2017-09-04T10:39:55.451Z,54.80
2017-09-04T10:42:27.048Z,54.40
2017-09-04T10:44:58.129Z,54.60
2017-09-04T10:47:28.917Z,55.10
2017-09-04T10:49:59.928Z,55.60
2017-09-04T10:52:30.587Z,55.90
2017-09-04T10:55:00.785Z,55.50
2017-09-04T10:57:30.845Z,55.50
2017-09-04T11:00:02.204Z,56.00
2017-09-04T11:02:32.775Z,56.40
2017-09-04T11:05:03.652Z,57.40
2017-09-04T11:07:35.632Z,57.00
2017-09-04T11:10:06.141Z,57.00
2017-09-04T11:12:36.012Z,55.40
2017-09-04T11:15:06.821Z,56.10
2017-09-04T11:17:36.827Z,55.80
2017-09-04T11:20:07.374Z,56.10
2017-09-04T11:22:37.838Z,52.90
2017-09-04T11:25:07.517Z,53.10
2017-09-04T11:27:37.212Z,54.00
2017-09-04T11:30:07.143Z,55.90
2017-09-04T11:32:36.999Z,56.20
2017-09-04T11:35:06.829Z,55.90
2017-09-04T11:37:36.093Z,55.00
2017-09-04T11:40:06.127Z,55.30
2017-09-04T11:42:36.342Z,53.90
2017-09-04T11:45:05.701Z,54.10
2017-09-04T11:47:35.426Z,55.10
2017-09-04T11:50:04.945Z,51.80
2017-09-04T11:52:34.310Z,52.50
2017-09-04T11:55:04.058Z,55.70
2017-09-04T11:57:33.189Z,56.60
2017-09-04T12:00:02.388Z,55.60
2017-09-04T12:02:32.257Z,52.70
2017-09-04T12:05:01.127Z,52.70
2017-09-04T12:07:32.713Z,51.10
2017-09-04T12:10:02.245Z,51.00
2017-09-04T12:12:31.257Z,51.60
2017-09-04T12:15:00.123Z,51.70
2017-09-04T12:17:28.809Z,53.60
2017-09-04T12:19:58.085Z,54.20
2017-09-04T12:22:27.465Z,53.60
2017-09-04T12:24:56.819Z,55.10
2017-09-04T12:27:26.154Z,54.60
2017-09-04T12:29:55.693Z,54.40
2017-09-04T12:32:24.750Z,55.70
2017-09-04T12:34:54.517Z,54.60
2017-09-04T12:37:24.392Z,53.20
2017-09-04T12:39:52.689Z,54.00
2017-09-04T12:42:21.105Z,54.00
2017-09-04T12:44:49.520Z,54.90
2017-09-04T12:47:17.945Z,53.10
2017-09-04T12:49:46.364Z,54.60
2017-09-04T12:52:14.824Z,52.60
2017-09-04T12:54:43.230Z,54.70
2017-09-04T12:57:11.649Z,54.40
2017-09-04T12:59:40.089Z,54.60
2017-09-04T13:02:08.344Z,55.90
2017-09-04T13:04:36.828Z,54.60
2017-09-04T13:07:05.236Z,54.80
2017-09-04T13:09:33.491Z,54.20
2017-09-04T13:15:02.750Z,52.80
2017-09-04T13:17:51.750Z,54.70
2017-09-04T13:20:25.837Z,54.00
2017-09-04T13:26:03.418Z,55.30
2017-09-04T13:31:39.414Z,56.30
2017-09-04T13:34:13.380Z,55.40
2017-09-04T13:36:47.302Z,55.60
2017-09-04T13:39:21.352Z,56.10
2017-09-04T13:41:55.223Z,55.60
2017-09-04T13:44:29.112Z,56.10
2017-09-04T13:50:04.745Z,57.40
2017-09-04T13:55:47.362Z,57.10
2017-09-04T13:58:21.487Z,57.50
2017-09-04T14:00:55.339Z,57.10
2017-09-04T14:03:39.393Z,57.20
2017-09-04T14:06:13.400Z,58.20
2017-09-04T14:08:47.308Z,56.80
2017-09-04T14:14:37.255Z,55.60
2017-09-04T14:17:22.357Z,57.50
2017-09-04T14:19:51.062Z,58.80
2017-09-04T14:22:19.284Z,58.00
2017-09-04T14:24:47.529Z,58.70
2017-09-04T14:27:16.033Z,58.10
2017-09-04T14:29:44.282Z,57.20
2017-09-04T14:32:12.551Z,56.50
2017-09-04T14:34:40.776Z,56.50
2017-09-04T14:37:09.204Z,57.80
2017-09-04T14:39:37.447Z,58.20
2017-09-04T14:42:05.827Z,58.50
2017-09-04T14:44:34.129Z,59.10
2017-09-04T14:47:08.336Z,58.80
2017-09-04T14:49:36.915Z,57.70
2017-09-04T14:52:05.210Z,57.60
2017-09-04T14:54:33.505Z,57.50
2017-09-04T14:57:02.030Z,58.60
2017-09-04T14:59:30.373Z,58.30
2017-09-04T15:01:58.662Z,59.00
2017-09-04T15:04:27.237Z,57.80
2017-09-04T15:06:55.564Z,58.70
2017-09-04T15:09:23.850Z,59.40
2017-09-04T15:11:52.079Z,58.50
2017-09-04T15:14:20.563Z,57.50
2017-09-04T15:16:48.870Z,58.20
2017-09-04T15:19:17.216Z,58.60
2017-09-04T15:21:45.485Z,58.20
2017-09-04T15:24:13.754Z,58.00
2017-09-04T15:26:42.249Z,58.00
2017-09-04T15:29:10.590Z,58.00
2017-09-04T15:31:38.912Z,58.90
2017-09-04T15:34:07.388Z,59.20
2017-09-04T15:36:35.673Z,59.90
2017-09-04T15:39:03.279Z,60.70
2017-09-04T15:41:31.624Z,59.90
2017-09-04T15:44:00.310Z,60.40
2017-09-04T15:46:28.534Z,61.30
2017-09-04T15:48:56.874Z,60.80
2017-09-04T15:51:25.104Z,61.30
2017-09-04T15:53:53.586Z,61.40
2017-09-04T15:56:22.020Z,61.90
2017-09-04T15:58:50.257Z,61.70
2017-09-04T16:01:18.480Z,62.00
2017-09-04T16:03:46.945Z,62.10
2017-09-04T16:06:17.146Z,61.80
2017-09-04T16:08:45.468Z,61.60
2017-09-04T16:11:15.657Z,61.80
2017-09-04T16:13:49.187Z,62.20
2017-09-04T16:16:24.133Z,62.00
2017-09-04T16:21:53.158Z,61.80
2017-09-04T16:24:22.353Z,62.40
2017-09-04T16:26:51.529Z,62.90
2017-09-04T16:32:16.925Z,63.10
2017-09-04T16:34:50.222Z,63.00
2017-09-04T16:37:19.389Z,63.40
2017-09-04T16:39:47.764Z,63.30
2017-09-04T16:42:17.624Z,63.30
2017-09-04T16:44:47.489Z,64.00
2017-09-04T16:47:15.720Z,63.90
2017-09-04T16:49:59.130Z,63.90
2017-09-04T16:52:29.883Z,64.60
2017-09-04T16:55:00.680Z,65.60
2017-09-04T16:57:29.555Z,64.20
2017-09-04T16:59:57.946Z,64.50
2017-09-04T17:02:27.103Z,64.40
2017-09-04T17:04:55.601Z,64.50
2017-09-04T17:07:23.844Z,64.70
2017-09-04T17:09:54.793Z,65.00
2017-09-04T17:12:23.807Z,64.70
2017-09-04T17:14:52.036Z,64.80
2017-09-04T17:17:22.828Z,65.20
2017-09-04T17:22:50.859Z,65.30
2017-09-04T17:25:24.716Z,65.30
2017-09-04T17:27:53.015Z,65.40
2017-09-04T17:30:21.278Z,65.60
2017-09-04T17:32:49.528Z,65.60
2017-09-04T17:35:17.876Z,65.90
2017-09-04T17:37:46.162Z,65.40
2017-09-04T17:40:14.434Z,65.80
2017-09-04T17:42:42.942Z,66.20
2017-09-04T17:45:11.216Z,66.70
2017-09-04T17:47:39.750Z,67.20
2017-09-04T17:50:08.418Z,67.80
2017-09-04T17:52:37.115Z,68.00
2017-09-04T17:55:05.446Z,68.40
2017-09-04T17:57:33.856Z,68.70
2017-09-04T18:00:02.863Z,69.30
2017-09-04T18:02:31.072Z,69.20
2017-09-04T18:04:59.406Z,69.60
2017-09-04T18:07:27.843Z,70.40
2017-09-04T18:09:56.369Z,71.10
2017-09-04T18:12:25.057Z,71.50
2017-09-04T18:14:53.725Z,71.70
2017-09-04T18:17:22.155Z,72.20
2017-09-04T18:19:50.602Z,72.10
2017-09-04T18:22:18.842Z,72.40
2017-09-04T18:24:47.084Z,72.50
2017-09-04T18:27:15.936Z,72.40
2017-09-04T18:29:44.207Z,72.90
2017-09-04T18:32:12.456Z,72.80
2017-09-04T18:34:40.981Z,73.00
2017-09-04T18:37:09.402Z,73.30
2017-09-04T18:39:37.661Z,73.70
2017-09-04T18:42:06.942Z,74.30
2017-09-04T18:44:35.158Z,74.30
2017-09-04T18:47:03.405Z,74.60
2017-09-04T18:49:31.836Z,74.30
2017-09-04T18:52:00.082Z,74.90
2017-09-04T18:54:28.304Z,75.20
2017-09-04T18:56:56.687Z,75.20
2017-09-04T18:59:24.938Z,75.10
2017-09-04T19:01:53.362Z,75.30
2017-09-04T19:04:21.965Z,75.60
2017-09-04T19:06:50.393Z,75.80
2017-09-04T19:09:19.740Z,76.40
2017-09-04T19:11:48.320Z,75.80
2017-09-04T19:14:16.994Z,76.00
2017-09-04T19:16:45.910Z,76.30
2017-09-04T19:19:14.189Z,76.40
2017-09-04T19:21:42.609Z,76.30
2017-09-04T19:24:10.838Z,76.10
2017-09-04T19:26:39.103Z,76.30
2017-09-04T19:29:07.342Z,76.20
2017-09-04T19:31:35.589Z,76.10
2017-09-04T19:34:03.913Z,76.10
2017-09-04T19:36:32.896Z,76.40
2017-09-04T19:39:01.179Z,76.40
2017-09-04T19:41:29.745Z,76.50
2017-09-04T19:43:58.347Z,76.60
2017-09-04T19:46:27.018Z,76.50
2017-09-04T19:48:55.590Z,76.70
2017-09-04T19:51:23.821Z,76.60
2017-09-04T19:53:52.031Z,76.70
2017-09-04T19:56:20.336Z,76.50
2017-09-04T19:58:48.570Z,76.70
2017-09-04T20:01:16.854Z,77.00
2017-09-04T20:03:45.258Z,77.20
2017-09-04T20:06:13.493Z,77.30
2017-09-04T20:08:41.740Z,77.40
2017-09-04T20:11:10.145Z,77.20
2017-09-04T20:13:39.151Z,78.00
2017-09-04T20:16:07.398Z,78.00
2017-09-04T20:18:35.662Z,78.10
2017-09-04T20:21:03.894Z,78.00
2017-09-04T20:23:33.081Z,77.80
2017-09-04T20:26:01.317Z,77.80
2017-09-04T20:28:29.537Z,78.30
2017-09-04T20:30:57.970Z,79.10
2017-09-04T20:33:26.526Z,78.90
2017-09-04T20:35:55.174Z,79.20
2017-09-04T20:38:23.397Z,79.40
2017-09-04T20:40:51.629Z,78.90
2017-09-04T20:43:19.866Z,78.90
2017-09-04T20:45:48.294Z,79.20
2017-09-04T20:48:16.964Z,79.30
2017-09-04T20:50:45.386Z,79.40
2017-09-04T20:53:13.865Z,79.60
2017-09-04T20:55:42.302Z,79.70
2017-09-04T20:58:10.765Z,79.40
2017-09-04T21:00:39.455Z,79.30
2017-09-04T21:03:07.672Z,79.90
2017-09-04T21:05:35.909Z,79.70
2017-09-04T21:08:04.420Z,79.80
2017-09-04T21:10:33.728Z,79.80
2017-09-04T21:13:02.105Z,79.70
2017-09-04T21:15:30.359Z,79.80
2017-09-04T21:17:58.585Z,79.80
2017-09-04T21:20:26.828Z,80.20
2017-09-04T21:22:55.068Z,80.30
2017-09-04T21:25:23.454Z,80.40
2017-09-04T21:27:51.703Z,80.50
2017-09-04T21:30:19.917Z,80.60
2017-09-04T21:32:48.151Z,80.90
2017-09-04T21:35:16.398Z,80.80
2017-09-04T21:37:44.732Z,82.30
2017-09-04T21:40:12.984Z,81.90
2017-09-04T21:42:41.246Z,81.70
2017-09-04T21:45:09.693Z,81.70
2017-09-04T21:47:38.097Z,81.60
2017-09-04T21:50:06.800Z,82.20
2017-09-04T21:52:35.228Z,81.90
2017-09-04T21:55:03.644Z,82.30
2017-09-04T21:57:32.080Z,82.20
2017-09-04T22:00:00.481Z,82.80
2017-09-04T22:02:28.997Z,82.20
2017-09-04T22:04:57.233Z,82.30
2017-09-04T22:07:25.905Z,82.40
2017-09-04T22:09:54.386Z,83.20
2017-09-04T22:12:22.868Z,82.90
2017-09-04T22:14:51.496Z,83.70
2017-09-04T22:17:19.920Z,83.80
2017-09-04T22:19:48.353Z,84.50
2017-09-04T22:22:16.793Z,84.50
2017-09-04T22:24:45.047Z,85.30
2017-09-04T22:27:13.486Z,85.50
2017-09-04T22:29:41.722Z,85.60
2017-09-04T22:32:09.965Z,86.00
2017-09-04T22:34:38.195Z,86.40
2017-09-04T22:37:06.617Z,86.70
2017-09-04T22:39:34.661Z,86.80
2017-09-04T22:42:03.082Z,86.70
2017-09-04T22:44:31.751Z,86.70
2017-09-04T22:46:59.980Z,87.20
2017-09-04T22:49:28.313Z,87.60
2017-09-04T22:51:56.601Z,87.50
2017-09-04T22:54:24.854Z,87.60
2017-09-04T22:56:53.081Z,87.70
2017-09-04T22:59:21.320Z,87.90
2017-09-04T23:01:49.599Z,88.40
2017-09-04T23:04:17.849Z,88.40
2017-09-04T23:06:46.073Z,88.40
2017-09-04T23:09:14.359Z,88.70
2017-09-04T23:11:43.385Z,88.90
2017-09-04T23:14:11.667Z,88.90
2017-09-04T23:16:40.116Z,89.00
2017-09-04T23:19:08.580Z,89.30
2017-09-04T23:21:37.012Z,89.80
2017-09-04T23:24:05.282Z,89.90
2017-09-04T23:26:33.941Z,90.20
2017-09-04T23:29:02.228Z,90.30
2017-09-04T23:31:30.656Z,90.30
2017-09-04T23:33:58.872Z,90.50
2017-09-04T23:36:27.360Z,90.60
2017-09-04T23:38:55.789Z,90.50
2017-09-04T23:41:24.427Z,90.70
2017-09-04T23:43:52.713Z,90.90
2017-09-04T23:46:21.131Z,90.90
2017-09-04T23:48:49.838Z,90.90
2017-09-04T23:51:18.516Z,90.90
2017-09-04T23:53:47.028Z,90.90
2017-09-04T23:56:15.450Z,91.00
2017-09-04T23:58:43.677Z,91.10
